createdAt,value
2023-05-19T00:08:12.090Z,2.90
2023-05-19T00:18:34.613Z,2.90
2023-05-19T00:28:56.334Z,2.60
2023-05-19T00:39:18.218Z,2.50
2023-05-19T00:49:40.450Z,2.90
2023-05-19T01:00:04.256Z,3.10
2023-05-19T01:10:26.246Z,3.00
2023-05-19T01:20:53.588Z,3.10
2023-05-19T01:31:16.874Z,3.17
2023-05-19T01:41:42.368Z,3.37
2023-05-19T01:52:04.517Z,3.40
2023-05-19T02:02:43.980Z,3.78
2023-05-19T02:13:09.316Z,4.13
2023-05-19T02:23:31.160Z,3.83
2023-05-19T02:33:52.929Z,4.00
2023-05-19T02:44:14.772Z,4.10
2023-05-19T02:54:36.660Z,3.70
2023-05-19T03:04:58.456Z,3.72
2023-05-19T03:15:22.949Z,3.72
2023-05-19T03:25:44.948Z,4.10
2023-05-19T03:36:07.232Z,4.47
2023-05-19T03:46:29.130Z,4.30
2023-05-19T03:56:51.287Z,4.60
2023-05-19T04:07:13.121Z,4.03
2023-05-19T04:17:35.179Z,3.17
2023-05-19T04:27:57.929Z,4.10
2023-05-19T04:38:20.274Z,3.40
2023-05-19T04:48:42.801Z,3.88
2023-05-19T04:59:04.742Z,4.38
2023-05-19T05:09:26.719Z,3.90
2023-05-19T05:19:48.916Z,4.13
2023-05-19T05:30:11.036Z,4.40
2023-05-19T05:40:32.908Z,3.80
2023-05-19T05:50:56.867Z,3.57
2023-05-19T06:01:18.716Z,4.00
2023-05-19T06:11:40.552Z,3.43
2023-05-19T06:22:02.475Z,3.03
2023-05-19T06:32:24.380Z,3.00
2023-05-19T06:42:46.299Z,3.08
2023-05-19T06:53:08.075Z,2.27
2023-05-19T07:03:10.084Z,2.20
2023-05-19T07:13:11.638Z,2.35
2023-05-19T07:23:13.278Z,2.53
2023-05-19T07:43:33.588Z,2.17
2023-05-19T07:53:35.124Z,2.75
2023-05-19T08:03:57.817Z,2.60
2023-05-19T08:14:22.259Z,2.70
2023-05-19T08:24:44.683Z,2.60
2023-05-19T08:35:07.641Z,2.43
2023-05-19T08:45:30.678Z,2.70
2023-05-19T08:55:55.510Z,2.25
2023-05-19T09:06:17.381Z,2.30
2023-05-19T09:16:39.261Z,2.10
2023-05-19T09:27:02.276Z,1.98
2023-05-19T09:37:24.794Z,2.43
2023-05-19T09:47:27.887Z,2.10
2023-05-19T09:57:36.942Z,2.53
2023-05-19T10:07:40.538Z,2.20
2023-05-19T10:17:43.411Z,2.10
2023-05-19T10:28:00.650Z,2.37
2023-05-19T10:38:13.326Z,2.00
2023-05-19T10:48:16.799Z,2.40
2023-05-19T10:58:39.594Z,3.00
2023-05-19T11:08:41.556Z,2.42
2023-05-19T11:19:06.105Z,2.60
2023-05-19T11:29:28.269Z,2.80
2023-05-19T11:39:50.222Z,3.13
2023-05-19T11:50:12.794Z,2.10
2023-05-19T12:00:38.976Z,2.83
2023-05-19T12:11:01.021Z,2.37
2023-05-19T12:21:22.970Z,2.53
2023-05-19T12:31:48.307Z,2.27
2023-05-19T12:42:11.412Z,2.17
2023-05-19T12:52:35.590Z,1.42
2023-05-19T13:03:05.694Z,2.30
2023-05-19T13:13:28.025Z,2.40
2023-05-19T13:23:49.936Z,2.30
2023-05-19T13:34:11.735Z,2.10
2023-05-19T13:44:33.569Z,2.20
2023-05-19T13:54:56.665Z,6.00
2023-05-19T14:05:19.078Z,2.85
2023-05-19T14:15:41.311Z,2.50
2023-05-19T14:26:03.157Z,1.90
2023-05-19T14:36:25.025Z,2.00
2023-05-19T14:46:46.993Z,2.10
2023-05-19T14:57:08.843Z,1.90
2023-05-19T15:07:11.106Z,2.00
2023-05-19T15:17:13.027Z,2.10
2023-05-19T15:27:36.445Z,1.70
2023-05-19T15:37:38.010Z,2.03
2023-05-19T15:47:39.485Z,1.90
2023-05-19T15:57:41.334Z,2.27
2023-05-19T16:07:43.165Z,2.20
2023-05-19T16:17:44.806Z,2.33
2023-05-19T16:27:46.466Z,2.20
2023-05-19T16:37:48.551Z,2.23
2023-05-19T16:47:50.058Z,2.50
2023-05-19T16:58:12.147Z,1.63
2023-05-19T17:08:33.907Z,1.80
2023-05-19T17:18:56.029Z,1.70
2023-05-19T17:29:17.933Z,1.75
2023-05-19T17:39:20.163Z,1.53
2023-05-19T17:49:22.979Z,2.13
2023-05-19T17:59:24.962Z,1.77
2023-05-19T18:09:28.918Z,1.93
2023-05-19T18:19:30.734Z,2.10
2023-05-19T18:29:34.227Z,2.30
2023-05-19T18:39:36.865Z,2.60
2023-05-19T18:49:58.925Z,2.27
2023-05-19T19:00:20.778Z,2.20
2023-05-19T19:10:42.640Z,2.10
2023-05-19T19:21:06.039Z,2.20
2023-05-19T19:31:30.852Z,2.60
2023-05-19T19:41:52.707Z,2.20
2023-05-19T19:51:54.222Z,1.90
2023-05-19T20:02:16.119Z,2.20
2023-05-19T20:12:38.256Z,2.40
2023-05-19T20:22:40.208Z,2.45
2023-05-19T20:32:41.881Z,2.30
2023-05-19T20:42:43.492Z,2.20
2023-05-19T20:52:44.975Z,1.80
2023-05-19T21:02:46.580Z,2.13
2023-05-19T21:12:48.111Z,2.57
2023-05-19T21:22:49.593Z,2.38
2023-05-19T21:32:51.316Z,2.55
2023-05-19T21:42:52.929Z,2.27
2023-05-19T21:52:54.762Z,2.20
2023-05-19T22:03:16.764Z,2.42
2023-05-19T22:13:41.020Z,2.47
2023-05-19T22:24:03.031Z,2.43
2023-05-19T22:34:25.161Z,2.30
2023-05-19T22:44:46.924Z,2.30
2023-05-19T22:55:09.319Z,2.30
2023-05-19T23:05:31.236Z,2.30
2023-05-19T23:15:53.098Z,1.95
2023-05-19T23:26:14.936Z,2.30
2023-05-19T23:36:37.026Z,2.30
2023-05-19T23:46:59.021Z,2.20
2023-05-19T23:57:20.974Z,2.20
